Time;durP1;ratioP1;P1;durP2;ratioP2;P2;SDS_P1;SDS_P2;PMS_P1;PMS_P2;Temp;Humidity;BMP_temperature;BMP_pressure;BME280_temperature;BME280_humidity;BME280_pressure;Samples;Min_cycle;Max_cycle;Signal;HPM_P1;HPM_P2
2022/10/15 00:02:21;;;;;;;31.20;16.83;;;13.00;88.00;;;;;;4950689;28;20099;-76
2022/10/15 00:04:48;;;;;;;30.33;16.63;;;13.00;88.00;;;;;;4969710;28;20259;-76
2022/10/15 00:07:16;;;;;;;28.75;15.98;;;13.00;88.00;;;;;;4969855;28;20051;-76
2022/10/15 00:09:43;;;;;;;30.48;16.13;;;13.00;88.00;;;;;;4968848;28;20142;-76
2022/10/15 00:12:11;;;;;;;29.95;16.27;;;13.00;88.00;;;;;;4969481;28;20506;-76
2022/10/15 00:14:38;;;;;;;31.73;16.20;;;13.00;88.00;;;;;;4951905;28;20443;-76
2022/10/15 00:17:05;;;;;;;32.75;18.25;;;13.00;88.00;;;;;;4963019;28;20306;-76
2022/10/15 00:19:32;;;;;;;30.20;17.52;;;13.00;88.00;;;;;;4969634;28;20055;-76
2022/10/15 00:21:59;;;;;;;31.05;16.90;;;12.90;88.10;;;;;;4971350;28;20524;-76
2022/10/15 00:24:27;;;;;;;31.48;16.58;;;12.90;88.00;;;;;;4970848;28;20058;-76
2022/10/15 00:26:55;;;;;;;32.20;17.67;;;12.90;88.10;;;;;;4969259;28;20065;-76
2022/10/15 00:29:22;;;;;;;32.90;18.75;;;12.90;88.10;;;;;;4969193;28;20385;-76
2022/10/15 00:31:53;;;;;;;30.50;17.63;;;12.90;88.10;;;;;;4941584;28;20056;-76
2022/10/15 00:34:20;;;;;;;32.20;18.10;;;12.90;88.10;;;;;;4957400;28;20051;-76
2022/10/15 00:36:50;;;;;;;32.90;18.50;;;12.90;88.20;;;;;;4970683;28;20429;-76
2022/10/15 00:39:17;;;;;;;31.93;17.63;;;12.90;88.20;;;;;;4961016;28;20135;-76
2022/10/15 00:41:46;;;;;;;31.83;17.33;;;12.90;88.20;;;;;;4951302;28;20580;-76
2022/10/15 00:44:49;;;;;;;34.22;18.58;;;12.80;88.20;;;;;;4955759;28;20086;-76
2022/10/15 00:47:20;;;;;;;35.15;18.92;;;12.80;88.30;;;;;;4969092;28;20044;-76
2022/10/15 00:49:55;;;;;;;30.45;18.15;;;12.80;88.30;;;;;;4968517;28;20130;-76
2022/10/15 00:52:26;;;;;;;31.33;17.70;;;12.80;88.30;;;;;;4964084;28;20503;-76
2022/10/15 00:54:59;;;;;;;35.92;20.92;;;12.80;88.30;;;;;;4949868;28;20355;-76
2022/10/15 00:57:28;;;;;;;31.65;18.15;;;12.80;88.30;;;;;;4942594;28;20130;-76
2022/10/15 01:00:01;;;;;;;32.60;19.02;;;12.80;88.30;;;;;;4969686;28;20073;-76
2022/10/15 01:02:28;;;;;;;32.78;18.58;;;12.80;88.40;;;;;;4972576;28;20051;-76
2022/10/15 01:04:56;;;;;;;32.60;18.47;;;12.80;88.30;;;;;;4967779;28;20052;-76
2022/10/15 01:07:23;;;;;;;33.20;18.52;;;12.80;88.30;;;;;;4952852;28;20267;-76
2022/10/15 01:09:51;;;;;;;32.63;18.38;;;12.80;88.30;;;;;;4956579;28;20145;-76
2022/10/15 01:12:33;;;;;;;36.53;19.15;;;12.70;88.40;;;;;;4972247;28;20055;-76
2022/10/15 01:15:06;;;;;;;35.05;19.20;;;12.70;88.50;;;;;;4956381;28;20489;-76
2022/10/15 01:17:42;;;;;;;36.77;19.63;;;12.70;88.40;;;;;;4971971;28;20143;-76
2022/10/15 01:20:40;;;;;;;35.35;19.48;;;12.70;88.40;;;;;;4955557;28;20410;-76
2022/10/15 01:23:42;;;;;;;33.80;19.55;;;12.70;88.50;;;;;;4952230;28;20580;-76
2022/10/15 01:26:30;;;;;;;32.15;18.80;;;12.70;88.50;;;;;;4938545;28;20060;-76
2022/10/15 01:29:06;;;;;;;31.00;18.33;;;12.70;88.50;;;;;;4966234;28;20663;-76
2022/10/15 01:31:42;;;;;;;32.73;19.23;;;12.70;88.50;;;;;;4953185;28;20048;-76
2022/10/15 01:34:16;;;;;;;30.65;17.85;;;12.70;88.50;;;;;;4968822;28;20308;-76
2022/10/15 01:36:48;;;;;;;31.02;18.10;;;12.70;88.60;;;;;;4964592;28;20078;-76
2022/10/15 01:39:23;;;;;;;32.10;18.70;;;12.70;88.60;;;;;;4971630;28;20051;-76
2022/10/15 01:41:54;;;;;;;30.67;17.42;;;12.70;88.60;;;;;;4968396;28;20055;-76
2022/10/15 01:44:28;;;;;;;33.27;19.13;;;12.70;88.60;;;;;;4936623;28;20047;-76
2022/10/15 01:47:18;;;;;;;32.30;18.70;;;12.70;88.60;;;;;;4952224;28;21394;-76
2022/10/15 01:49:48;;;;;;;33.85;19.08;;;12.70;88.60;;;;;;4971458;28;20142;-76
2022/10/15 01:52:19;;;;;;;30.20;17.38;;;12.70;88.60;;;;;;4971582;28;20330;-76
2022/10/15 01:54:48;;;;;;;30.90;17.48;;;12.70;88.60;;;;;;4955664;28;20490;-76
2022/10/15 01:57:16;;;;;;;32.47;18.57;;;12.70;88.70;;;;;;4971450;28;20058;-76
2022/10/15 01:59:44;;;;;;;34.22;18.42;;;12.70;88.60;;;;;;4971399;28;20734;-76
2022/10/15 02:02:13;;;;;;;30.23;17.55;;;12.70;88.60;;;;;;4971613;28;20128;-76
2022/10/15 02:04:40;;;;;;;30.23;16.90;;;12.60;88.60;;;;;;4964301;28;20063;-76
2022/10/15 02:07:11;;;;;;;30.90;18.08;;;12.60;88.70;;;;;;4955260;28;20047;-76
2022/10/15 02:09:48;;;;;;;29.70;16.97;;;12.60;88.60;;;;;;4954653;28;20139;-75
2022/10/15 02:12:32;;;;;;;31.98;17.50;;;12.70;88.60;;;;;;4954179;28;20645;-76
2022/10/15 02:15:06;;;;;;;30.25;17.17;;;12.60;88.70;;;;;;4954868;28;20054;-76
2022/10/15 02:17:41;;;;;;;34.17;18.23;;;12.70;88.70;;;;;;4972650;28;20134;-76
2022/10/15 02:20:15;;;;;;;33.92;17.98;;;12.60;88.70;;;;;;4954126;28;20123;-76
2022/10/15 02:22:49;;;;;;;31.30;17.17;;;12.60;88.70;;;;;;4977966;28;20074;-76
2022/10/15 02:25:21;;;;;;;31.67;18.10;;;12.60;88.70;;;;;;4952293;28;20264;-76
2022/10/15 02:27:51;;;;;;;31.38;17.83;;;12.60;88.70;;;;;;4966670;28;20450;-76
2022/10/15 02:30:19;;;;;;;28.70;16.08;;;12.60;88.60;;;;;;4970497;28;20084;-76
2022/10/15 02:32:51;;;;;;;29.88;15.82;;;12.60;88.60;;;;;;4954758;28;20051;-76
2022/10/15 02:35:23;;;;;;;28.83;16.70;;;12.60;88.60;;;;;;4987563;28;20173;-76
2022/10/15 02:37:53;;;;;;;29.08;16.23;;;12.60;88.60;;;;;;4956350;28;20343;-76
2022/10/15 02:40:26;;;;;;;31.27;16.70;;;12.60;88.60;;;;;;4950249;28;20163;-76
2022/10/15 02:42:53;;;;;;;30.17;16.05;;;12.60;88.50;;;;;;4935451;28;20052;-76
2022/10/15 02:45:20;;;;;;;28.95;16.17;;;12.60;88.50;;;;;;4964054;28;20186;-76
2022/10/15 02:47:49;;;;;;;28.83;16.43;;;12.60;88.50;;;;;;4970963;28;20085;-76
2022/10/15 02:50:18;;;;;;;30.17;15.82;;;12.60;88.50;;;;;;4951196;28;20275;-76
2022/10/15 02:52:45;;;;;;;30.52;15.98;;;12.60;88.40;;;;;;4951408;28;20051;-76
2022/10/15 02:55:12;;;;;;;29.92;15.90;;;12.60;88.40;;;;;;4961848;28;20051;-76
2022/10/15 02:57:39;;;;;;;30.70;16.38;;;12.60;88.40;;;;;;4969405;28;20228;-76
2022/10/15 03:00:09;;;;;;;28.33;15.40;;;12.60;88.40;;;;;;4970643;28;20047;-76
2022/10/15 03:02:38;;;;;;;27.90;15.15;;;12.60;88.30;;;;;;4947583;28;20292;-76
2022/10/15 03:05:07;;;;;;;29.30;16.20;;;12.60;88.30;;;;;;4981035;28;20081;-76
2022/10/15 03:07:34;;;;;;;31.73;16.70;;;12.60;88.30;;;;;;4948155;28;20047;-76
2022/10/15 03:10:01;;;;;;;28.65;16.23;;;12.60;88.30;;;;;;4950807;28;20048;-76
2022/10/15 03:12:29;;;;;;;30.30;16.37;;;12.50;88.30;;;;;;4953272;28;20052;-76
2022/10/15 03:14:57;;;;;;;27.88;14.95;;;12.60;88.30;;;;;;4936104;28;20256;-76
2022/10/15 03:17:25;;;;;;;26.88;15.13;;;12.50;88.20;;;;;;4970566;28;20058;-76
2022/10/15 03:19:52;;;;;;;30.05;15.40;;;12.50;88.20;;;;;;4968789;28;20138;-76
2022/10/15 03:22:21;;;;;;;32.17;16.33;;;12.50;88.20;;;;;;4967306;28;20159;-76
2022/10/15 03:24:53;;;;;;;33.43;16.57;;;12.50;88.20;;;;;;4969686;28;20051;-76
2022/10/15 03:27:25;;;;;;;32.38;16.13;;;12.50;88.20;;;;;;4970506;28;20264;-76
2022/10/15 03:29:53;;;;;;;26.95;14.77;;;12.50;88.20;;;;;;4969280;28;20505;-76
2022/10/15 03:32:22;;;;;;;31.30;15.68;;;12.50;88.20;;;;;;4934938;28;20108;-76
2022/10/15 03:34:49;;;;;;;30.15;16.70;;;12.50;88.20;;;;;;4980919;28;20098;-76
2022/10/15 03:37:18;;;;;;;32.53;16.17;;;12.50;88.20;;;;;;4966754;28;20111;-76
2022/10/15 03:39:47;;;;;;;31.08;16.15;;;12.50;88.20;;;;;;4967815;28;20287;-76
2022/10/15 03:42:16;;;;;;;28.98;15.77;;;12.50;88.20;;;;;;4968863;28;20051;-76
2022/10/15 03:44:46;;;;;;;31.23;16.13;;;12.50;88.20;;;;;;4952295;28;20129;-76
2022/10/15 03:47:17;;;;;;;32.47;18.30;;;12.50;88.20;;;;;;4952496;28;20051;-76
2022/10/15 03:49:47;;;;;;;36.23;18.50;;;12.50;88.20;;;;;;4935139;28;20058;-77
2022/10/15 03:52:15;;;;;;;34.42;17.75;;;12.50;88.20;;;;;;4961016;28;20285;-76
2022/10/15 03:54:44;;;;;;;34.00;18.58;;;12.50;88.20;;;;;;4969715;28;20055;-76
2022/10/15 03:57:14;;;;;;;34.65;17.10;;;12.50;88.20;;;;;;4939515;28;20740;-76
2022/10/15 03:59:48;;;;;;;33.67;18.20;;;12.50;88.10;;;;;;4950755;28;20039;-76
2022/10/15 04:02:16;;;;;;;35.73;18.03;;;12.50;88.10;;;;;;4964027;28;20059;-76
2022/10/15 04:04:44;;;;;;;36.72;18.20;;;12.50;88.10;;;;;;4958600;28;20266;-76
2022/10/15 04:07:11;;;;;;;37.20;19.63;;;12.50;88.10;;;;;;4941495;28;20594;-77
2022/10/15 04:09:38;;;;;;;36.13;18.73;;;12.50;88.10;;;;;;4957143;28;20048;-76
2022/10/15 04:12:26;;;;;;;37.53;19.70;;;12.50;88.10;;;;;;4986182;28;20839;-76
2022/10/15 04:14:53;;;;;;;40.87;21.10;;;12.50;88.10;;;;;;4953516;28;20466;-75
2022/10/15 04:17:21;;;;;;;39.35;19.35;;;12.50;88.10;;;;;;4969819;28;20394;-76
2022/10/15 04:19:50;;;;;;;38.42;21.10;;;12.50;88.10;;;;;;4952469;28;20083;-76
2022/10/15 04:22:17;;;;;;;40.38;21.13;;;12.50;88.10;;;;;;4969623;28;20130;-76
2022/10/15 04:24:49;;;;;;;38.08;19.52;;;12.50;88.10;;;;;;4969398;28;20161;-76
2022/10/15 04:27:27;;;;;;;38.20;19.90;;;12.50;88.10;;;;;;4969390;28;20138;-76
2022/10/15 04:30:03;;;;;;;42.17;21.90;;;12.50;88.00;;;;;;4969238;28;20322;-76
2022/10/15 04:32:31;;;;;;;43.55;21.17;;;12.50;88.10;;;;;;4944308;28;20554;-76
2022/10/15 04:34:58;;;;;;;41.20;21.30;;;12.50;88.00;;;;;;4950955;28;20055;-76
2022/10/15 04:37:43;;;;;;;40.85;21.10;;;12.50;88.00;;;;;;4955734;28;20055;-76
2022/10/15 04:40:12;;;;;;;40.20;20.97;;;12.50;88.00;;;;;;4972376;28;20118;-76
2022/10/15 04:42:41;;;;;;;39.72;20.30;;;12.50;88.00;;;;;;4972826;28;20366;-76
2022/10/15 04:45:09;;;;;;;40.15;21.45;;;12.50;88.00;;;;;;4970800;28;20083;-76
2022/10/15 04:47:37;;;;;;;38.60;20.65;;;12.50;88.00;;;;;;4972869;28;20062;-76
2022/10/15 04:50:15;;;;;;;39.50;21.15;;;12.40;87.90;;;;;;4949609;28;20040;-76
2022/10/15 04:53:01;;;;;;;42.13;20.43;;;12.40;87.90;;;;;;4955270;28;20066;-76
2022/10/15 04:55:32;;;;;;;40.70;20.77;;;12.30;88.00;;;;;;4972176;28;20260;-76
2022/10/15 04:58:06;;;;;;;44.17;20.88;;;12.30;88.00;;;;;;4972329;28;20071;-76
2022/10/15 05:00:33;;;;;;;38.83;19.95;;;12.30;87.90;;;;;;4963345;28;20047;-76
2022/10/15 05:03:32;;;;;;;39.10;20.27;;;12.30;87.90;;;;;;4965451;28;20198;-76
2022/10/15 05:06:06;;;;;;;42.37;20.80;;;12.30;87.80;;;;;;4961280;28;20071;-76
2022/10/15 05:08:34;;;;;;;41.00;20.77;;;12.30;87.90;;;;;;4955741;28;20291;-76
2022/10/15 05:11:10;;;;;;;43.20;20.73;;;12.20;87.90;;;;;;4971929;28;20051;-76
2022/10/15 05:13:40;;;;;;;40.40;20.55;;;12.20;87.80;;;;;;4955978;28;20059;-76
2022/10/15 05:16:13;;;;;;;44.33;22.20;;;12.20;87.90;;;;;;4956293;28;20082;-76
2022/10/15 05:18:42;;;;;;;44.30;21.17;;;12.20;87.90;;;;;;4946623;28;20055;-76
2022/10/15 05:21:10;;;;;;;41.63;20.98;;;12.20;87.90;;;;;;4955502;28;20256;-76
2022/10/15 05:23:40;;;;;;;42.05;20.88;;;12.20;87.80;;;;;;4956106;28;20134;-76
2022/10/15 05:26:36;;;;;;;41.35;20.58;;;12.20;87.90;;;;;;4970075;28;20186;-76
2022/10/15 05:29:05;;;;;;;41.40;20.88;;;12.10;87.90;;;;;;4988162;28;20071;-76
2022/10/15 05:31:33;;;;;;;39.53;20.47;;;12.10;87.90;;;;;;4971324;28;20056;-76
2022/10/15 05:34:08;;;;;;;38.75;20.88;;;12.10;88.00;;;;;;4971255;28;20697;-76
2022/10/15 05:36:45;;;;;;;39.10;20.00;;;12.10;88.00;;;;;;4971468;28;20510;-76
2022/10/15 05:39:15;;;;;;;43.67;22.27;;;12.10;88.00;;;;;;4952545;28;20051;-75
2022/10/15 05:41:44;;;;;;;40.42;20.33;;;12.10;88.10;;;;;;4969184;28;20494;-76
2022/10/15 05:44:13;;;;;;;43.20;21.57;;;12.10;88.10;;;;;;4969667;28;20051;-76
2022/10/15 05:46:40;;;;;;;38.97;19.98;;;12.10;88.20;;;;;;4967711;28;20259;-76
2022/10/15 05:49:08;;;;;;;40.97;20.73;;;12.10;88.20;;;;;;4968984;28;20564;-76
2022/10/15 05:51:55;;;;;;;41.90;20.23;;;12.10;88.20;;;;;;4952084;28;20048;-76
2022/10/15 05:54:38;;;;;;;44.67;21.60;;;12.10;88.20;;;;;;4969401;28;20437;-75
2022/10/15 05:57:05;;;;;;;42.93;22.27;;;12.10;88.20;;;;;;4969028;28;20108;-75
2022/10/15 05:59:33;;;;;;;43.97;22.77;;;12.10;88.20;;;;;;4954285;28;20311;-75
2022/10/15 06:02:00;;;;;;;43.70;21.67;;;12.10;88.30;;;;;;4951119;28;20633;-75
2022/10/15 06:04:27;;;;;;;41.40;20.48;;;12.10;88.40;;;;;;4969884;28;20047;-76
2022/10/15 06:06:54;;;;;;;42.95;21.48;;;12.10;88.40;;;;;;4969958;28;20425;-76
2022/10/15 06:09:21;;;;;;;43.73;22.13;;;12.10;88.50;;;;;;4969072;28;20059;-76
2022/10/15 06:11:48;;;;;;;41.05;20.55;;;12.10;88.50;;;;;;4970827;28;20311;-75
2022/10/15 06:14:18;;;;;;;49.25;23.88;;;12.10;88.50;;;;;;4969182;28;20047;-75
2022/10/15 06:16:49;;;;;;;43.65;21.90;;;12.10;88.50;;;;;;4969938;28;20051;-75
2022/10/15 06:19:16;;;;;;;44.70;21.77;;;12.10;88.60;;;;;;4971078;28;20110;-76
2022/10/15 06:21:43;;;;;;;39.53;21.03;;;12.10;88.60;;;;;;4958340;28;20066;-76
2022/10/15 06:24:10;;;;;;;39.55;20.02;;;12.10;88.60;;;;;;4964356;28;20275;-76
2022/10/15 06:26:37;;;;;;;46.92;22.50;;;12.10;88.70;;;;;;4971154;28;20517;-76
2022/10/15 06:29:04;;;;;;;44.75;22.33;;;12.10;88.70;;;;;;4971166;28;20047;-75
2022/10/15 06:31:32;;;;;;;46.08;23.48;;;12.10;88.80;;;;;;4959416;28;20154;-75
2022/10/15 06:34:00;;;;;;;46.40;23.07;;;12.20;89.00;;;;;;4940036;28;20102;-75
2022/10/15 06:36:27;;;;;;;45.00;23.10;;;12.20;89.00;;;;;;4971441;28;20345;-75
2022/10/15 06:38:56;;;;;;;47.45;23.70;;;12.20;89.10;;;;;;4971845;28;20051;-73
2022/10/15 06:41:23;;;;;;;49.88;23.58;;;12.30;89.10;;;;;;4970693;28;20552;-75
2022/10/15 06:43:50;;;;;;;51.42;26.60;;;12.30;89.20;;;;;;4971683;28;20058;-76
2022/10/15 06:46:18;;;;;;;48.07;23.77;;;12.30;89.40;;;;;;4969994;28;20051;-77
2022/10/15 06:48:45;;;;;;;47.10;24.05;;;12.30;89.40;;;;;;4970158;28;20693;-76
2022/10/15 06:51:14;;;;;;;47.97;24.63;;;12.30;89.40;;;;;;4970768;28;20134;-76
2022/10/15 06:53:47;;;;;;;45.70;24.02;;;12.40;89.40;;;;;;4968385;28;20497;-76
2022/10/15 06:56:14;;;;;;;47.42;24.40;;;12.40;89.40;;;;;;4970661;28;20057;-76
2022/10/15 06:58:43;;;;;;;43.17;21.20;;;12.50;89.50;;;;;;4970014;28;20055;-76
2022/10/15 07:01:10;;;;;;;46.28;22.25;;;12.50;89.40;;;;;;4985923;28;20275;-76
2022/10/15 07:03:37;;;;;;;49.00;23.25;;;12.50;89.40;;;;;;4970516;28;20062;-76
2022/10/15 07:06:08;;;;;;;47.22;23.08;;;12.50;89.60;;;;;;4966521;28;20383;-76
2022/10/15 07:08:36;;;;;;;49.28;24.15;;;12.50;89.60;;;;;;4954668;28;20048;-75
2022/10/15 07:11:04;;;;;;;46.97;23.00;;;12.50;89.70;;;;;;4957891;28;20083;-76
2022/10/15 07:13:32;;;;;;;52.53;24.48;;;12.50;89.70;;;;;;4970174;28;20468;-76
2022/10/15 07:16:04;;;;;;;50.42;24.42;;;12.50;89.70;;;;;;4969527;28;20051;-76
2022/10/15 07:18:32;;;;;;;52.15;25.42;;;12.50;89.90;;;;;;4971352;28;20055;-75
2022/10/15 07:20:59;;;;;;;45.78;23.90;;;12.50;90.00;;;;;;4968889;28;20079;-75
2022/10/15 07:23:27;;;;;;;50.63;23.80;;;12.50;89.80;;;;;;4967670;28;20138;-75
2022/10/15 07:25:57;;;;;;;44.20;22.25;;;12.50;90.00;;;;;;4967549;28;20255;-75
2022/10/15 07:28:24;;;;;;;47.45;22.60;;;12.50;90.00;;;;;;4966822;28;20083;-75
2022/10/15 07:30:52;;;;;;;47.45;23.92;;;12.50;89.90;;;;;;4967449;28;20188;-75
2022/10/15 07:33:19;;;;;;;50.10;25.83;;;12.60;90.00;;;;;;4967813;28;20047;-75
2022/10/15 07:35:59;;;;;;;50.37;23.90;;;12.60;90.00;;;;;;4965251;28;20576;-75
2022/10/15 07:38:26;;;;;;;50.78;24.52;;;12.60;90.00;;;;;;4969252;28;20311;-75
2022/10/15 07:40:58;;;;;;;46.25;23.65;;;12.60;90.00;;;;;;4969416;28;20079;-75
2022/10/15 07:43:26;;;;;;;47.33;24.10;;;12.60;89.90;;;;;;4969570;28;20703;-75
2022/10/15 07:45:54;;;;;;;44.95;22.27;;;12.60;90.00;;;;;;4969633;28;20513;-76
2022/10/15 07:48:21;;;;;;;45.13;23.20;;;12.70;90.00;;;;;;4968140;28;21064;-75
2022/10/15 07:50:53;;;;;;;50.10;24.55;;;12.70;90.00;;;;;;4969713;28;20247;-76
2022/10/15 07:53:20;;;;;;;44.58;23.00;;;12.70;90.10;;;;;;4969531;28;21043;-74
2022/10/15 07:55:52;;;;;;;41.53;21.48;;;12.70;90.00;;;;;;4969639;28;20123;-76
2022/10/15 07:58:21;;;;;;;45.88;22.85;;;12.70;90.10;;;;;;4969539;28;20059;-75
2022/10/15 08:00:48;;;;;;;44.30;22.53;;;12.70;90.20;;;;;;4968623;28;20655;-75
2022/10/15 08:03:14;;;;;;;43.35;22.27;;;12.70;90.30;;;;;;4969109;28;20267;-75
2022/10/15 08:05:41;;;;;;;44.42;22.33;;;12.80;90.20;;;;;;4968837;28;20043;-76
2022/10/15 08:08:08;;;;;;;41.63;23.00;;;12.80;90.30;;;;;;4969731;28;20095;-76
2022/10/15 08:10:36;;;;;;;48.85;24.73;;;12.80;90.30;;;;;;4969763;28;20055;-76
2022/10/15 08:13:03;;;;;;;49.10;24.23;;;12.80;90.30;;;;;;4971802;28;20532;-76
2022/10/15 08:15:32;;;;;;;46.63;23.13;;;12.80;90.50;;;;;;4973607;28;20251;-76
2022/10/15 08:17:59;;;;;;;47.00;24.30;;;12.90;90.60;;;;;;4954911;28;20058;-76
2022/10/15 08:20:26;;;;;;;48.88;25.50;;;12.90;90.70;;;;;;4971285;28;20122;-76
2022/10/15 08:22:54;;;;;;;50.35;25.92;;;12.90;90.70;;;;;;4970806;28;20079;-76
2022/10/15 08:25:21;;;;;;;46.50;23.83;;;13.00;90.90;;;;;;4973552;28;20142;-76
2022/10/15 08:27:48;;;;;;;49.72;26.17;;;13.00;91.10;;;;;;4971409;28;20258;-77
2022/10/15 08:30:15;;;;;;;50.28;26.00;;;13.00;91.00;;;;;;4972189;28;20051;-76
2022/10/15 08:32:45;;;;;;;51.15;26.33;;;13.10;90.90;;;;;;4971185;28;20122;-77
2022/10/15 08:35:12;;;;;;;54.22;26.63;;;13.10;91.00;;;;;;4971971;28;20065;-77
2022/10/15 08:37:39;;;;;;;49.87;26.20;;;13.10;91.20;;;;;;4971505;28;20054;-76
2022/10/15 08:40:07;;;;;;;47.65;25.98;;;13.20;91.10;;;;;;4972771;28;20934;-76
2022/10/15 08:42:38;;;;;;;48.33;23.60;;;13.20;91.00;;;;;;4972476;28;20053;-76
2022/10/15 08:45:11;;;;;;;50.65;26.70;;;13.20;90.90;;;;;;4971800;28;20519;-77
2022/10/15 08:47:45;;;;;;;50.60;25.85;;;13.30;90.90;;;;;;4962966;28;20064;-76
2022/10/15 08:50:24;;;;;;;50.83;26.03;;;13.30;90.70;;;;;;4968149;28;20154;-77
2022/10/15 08:52:53;;;;;;;50.65;26.52;;;13.30;90.70;;;;;;4972000;28;20287;-77
2022/10/15 08:55:22;;;;;;;49.42;24.92;;;13.30;90.70;;;;;;4970902;28;20081;-77
2022/10/15 08:57:54;;;;;;;50.42;25.15;;;13.30;90.60;;;;;;4971612;28;20081;-76
2022/10/15 09:00:23;;;;;;;53.20;27.33;;;13.30;90.80;;;;;;4969959;28;20165;-76
2022/10/15 09:03:01;;;;;;;50.03;24.97;;;13.30;90.70;;;;;;4971764;28;20074;-76
2022/10/15 09:05:38;;;;;;;48.88;24.40;;;13.30;90.80;;;;;;4968714;28;20262;-76
2022/10/15 09:08:14;;;;;;;52.55;27.27;;;13.30;90.70;;;;;;4969414;28;20061;-77
2022/10/15 09:10:46;;;;;;;50.80;22.80;;;13.30;90.70;;;;;;4970918;28;20132;-75
2022/10/15 09:13:24;;;;;;;45.50;20.70;;;13.40;90.60;;;;;;4969373;28;20058;-76
2022/10/15 09:15:56;;;;;;;50.70;24.10;;;13.40;90.50;;;;;;4970654;28;20509;-76
2022/10/15 09:18:25;;;;;;;52.17;23.77;;;13.40;90.30;;;;;;4970217;28;20260;-76
2022/10/15 09:20:54;;;;;;;51.92;21.58;;;13.40;90.20;;;;;;4968974;28;20057;-76
2022/10/15 09:23:25;;;;;;;46.08;21.92;;;13.40;90.00;;;;;;4972189;28;20090;-75
2022/10/15 09:25:58;;;;;;;41.85;18.98;;;13.30;90.00;;;;;;4970890;28;20074;-75
2022/10/15 09:28:32;;;;;;;41.17;19.17;;;13.30;90.00;;;;;;4971795;28;20114;-76
2022/10/15 09:31:00;;;;;;;38.78;17.88;;;13.30;89.90;;;;;;4972042;28;20259;-76
2022/10/15 09:33:37;;;;;;;44.90;22.52;;;13.30;90.00;;;;;;4970869;28;20055;-76
2022/10/15 09:36:16;;;;;;;46.80;21.88;;;13.30;90.30;;;;;;4970708;28;20520;-76
2022/10/15 09:38:54;;;;;;;39.50;18.00;;;13.30;90.20;;;;;;4887464;28;20178;-76
2022/10/15 09:41:30;;;;;;;40.90;19.50;;;13.30;90.30;;;;;;4969560;28;20062;-76
2022/10/15 09:44:00;;;;;;;37.10;18.23;;;13.30;90.40;;;;;;4968242;28;20282;-75
2022/10/15 09:46:31;;;;;;;36.85;17.75;;;13.30;90.40;;;;;;4970907;28;20498;-76
2022/10/15 09:49:05;;;;;;;30.95;15.80;;;13.30;90.50;;;;;;4970123;28;20055;-78
2022/10/15 09:51:38;;;;;;;35.05;17.10;;;13.30;90.60;;;;;;4970740;28;20040;-78
2022/10/15 09:54:12;;;;;;;36.43;17.73;;;13.30;90.70;;;;;;4970268;28;20131;-77
2022/10/15 09:56:45;;;;;;;36.72;16.90;;;13.30;90.70;;;;;;4969587;28;20271;-78
2022/10/15 09:59:16;;;;;;;30.27;15.45;;;13.40;90.70;;;;;;4970295;28;20077;-77
2022/10/15 10:01:57;;;;;;;28.15;14.40;;;13.40;90.70;;;;;;4970504;28;20059;-81
2022/10/15 10:04:27;;;;;;;33.08;15.40;;;13.40;90.60;;;;;;4970477;28;21018;-78
2022/10/15 10:06:56;;;;;;;33.90;16.67;;;13.50;90.60;;;;;;4970869;28;20848;-78
2022/10/15 10:09:26;;;;;;;34.13;17.30;;;13.50;90.60;;;;;;4969414;28;20283;-77
2022/10/15 10:12:00;;;;;;;30.60;15.45;;;13.50;90.60;;;;;;4972199;28;20063;-77
2022/10/15 10:14:31;;;;;;;30.35;14.75;;;13.50;90.50;;;;;;4967302;28;20051;-78
2022/10/15 10:17:15;;;;;;;32.03;15.25;;;13.50;90.50;;;;;;4970589;28;20055;-78
2022/10/15 10:19:42;;;;;;;36.33;18.40;;;13.50;90.50;;;;;;4970258;28;21788;-79
2022/10/15 10:22:16;;;;;;;34.25;18.20;;;13.50;90.50;;;;;;4983479;28;20278;-77
2022/10/15 10:24:44;;;;;;;32.17;16.00;;;13.50;90.50;;;;;;4970670;28;20456;-78
2022/10/15 10:27:21;;;;;;;32.08;15.50;;;13.50;90.40;;;;;;4971393;28;20059;-77
2022/10/15 10:29:55;;;;;;;32.22;15.32;;;13.60;90.30;;;;;;4968850;28;20081;-77
2022/10/15 10:32:26;;;;;;;34.23;15.63;;;13.60;90.20;;;;;;4883059;28;20198;-79
2022/10/15 10:34:54;;;;;;;30.80;14.43;;;13.60;90.30;;;;;;4971590;28;20295;-78
2022/10/15 10:37:23;;;;;;;32.15;15.00;;;13.60;90.40;;;;;;4969577;28;20134;-79
2022/10/15 10:39:55;;;;;;;32.22;14.05;;;13.60;90.50;;;;;;4964801;28;20134;-78
2022/10/15 10:42:32;;;;;;;27.45;13.57;;;13.70;90.60;;;;;;4969802;28;20130;-78
2022/10/15 10:45:22;;;;;;;26.83;12.77;;;13.70;90.70;;;;;;4967379;28;20134;-78
2022/10/15 10:47:49;;;;;;;26.00;12.45;;;13.80;90.70;;;;;;4969230;28;20335;-78
2022/10/15 10:50:30;;;;;;;28.05;12.95;;;13.90;90.70;;;;;;4969200;28;20044;-77
2022/10/15 10:53:10;;;;;;;31.33;14.48;;;13.90;90.80;;;;;;4972244;28;20126;-78
2022/10/15 10:55:39;;;;;;;27.77;14.07;;;13.90;90.80;;;;;;4968811;28;20151;-78
2022/10/15 10:58:15;;;;;;;27.80;13.67;;;14.00;90.60;;;;;;4963771;28;20536;-79
2022/10/15 11:00:44;;;;;;;26.73;12.85;;;14.00;90.50;;;;;;4949709;28;20280;-78
2022/10/15 11:03:20;;;;;;;27.52;13.43;;;14.00;90.40;;;;;;4950573;28;20040;-78
2022/10/15 11:06:15;;;;;;;23.15;12.05;;;14.00;90.40;;;;;;4968378;28;20066;-78
2022/10/15 11:08:56;;;;;;;23.63;12.18;;;14.10;90.40;;;;;;4967906;28;20059;-78
2022/10/15 11:11:30;;;;;;;23.10;11.60;;;14.10;90.30;;;;;;4973700;28;20059;-77
2022/10/15 11:14:08;;;;;;;24.35;11.40;;;14.10;90.20;;;;;;4968791;28;20777;-78
2022/10/15 11:16:42;;;;;;;22.38;11.30;;;14.20;90.10;;;;;;4969405;28;20162;-77
2022/10/15 11:19:21;;;;;;;23.02;12.70;;;14.20;90.10;;;;;;4969044;28;20118;-77
2022/10/15 11:22:02;;;;;;;23.85;11.10;;;14.20;90.10;;;;;;4964084;28;20131;-77
2022/10/15 11:24:39;;;;;;;21.17;11.40;;;14.30;90.10;;;;;;4967341;28;20130;-77
2022/10/15 11:27:19;;;;;;;19.52;10.52;;;14.30;89.90;;;;;;4968777;28;20673;-77
2022/10/15 11:29:55;;;;;;;21.20;10.35;;;14.30;89.80;;;;;;4966569;28;20561;-78
2022/10/15 11:32:34;;;;;;;18.50;9.35;;;14.40;89.70;;;;;;4967858;28;20066;-77
2022/10/15 11:35:31;;;;;;;20.50;11.00;;;14.40;89.60;;;;;;4968258;28;20059;-77
2022/10/15 11:38:11;;;;;;;22.03;11.57;;;14.40;89.40;;;;;;4971625;28;20133;-78
2022/10/15 11:40:51;;;;;;;21.30;11.13;;;14.40;89.40;;;;;;4969415;28;20342;-78
2022/10/15 11:43:43;;;;;;;19.52;10.23;;;14.50;89.30;;;;;;4969554;28;20047;-78
2022/10/15 11:46:17;;;;;;;20.88;10.65;;;14.50;89.20;;;;;;4971186;28;20082;-78
2022/10/15 11:48:56;;;;;;;18.55;10.50;;;14.50;89.00;;;;;;4968201;28;20055;-78
2022/10/15 11:51:31;;;;;;;24.07;13.00;;;14.50;89.00;;;;;;4966689;28;20043;-79
2022/10/15 11:54:21;;;;;;;23.23;12.15;;;14.50;89.00;;;;;;4964854;28;20802;-78
2022/10/15 11:56:53;;;;;;;22.83;12.20;;;14.50;88.90;;;;;;4981988;28;20079;-78
2022/10/15 11:59:32;;;;;;;23.50;11.63;;;14.60;88.90;;;;;;4967240;28;20099;-78
2022/10/15 12:02:04;;;;;;;24.42;11.88;;;14.60;88.90;;;;;;4967099;28;20058;-78
2022/10/15 12:04:39;;;;;;;22.57;12.17;;;14.60;89.00;;;;;;4969030;28;20087;-77
2022/10/15 12:07:11;;;;;;;21.40;11.75;;;14.60;89.10;;;;;;4967313;28;20256;-77
2022/10/15 12:09:43;;;;;;;25.23;12.25;;;14.60;89.10;;;;;;4969961;28;20132;-77
2022/10/15 12:12:21;;;;;;;20.55;11.27;;;14.70;89.10;;;;;;4915447;28;20056;-79
2022/10/15 12:15:07;;;;;;;23.10;12.57;;;14.70;89.10;;;;;;4969373;28;20031;-81
2022/10/15 12:17:42;;;;;;;21.60;11.07;;;14.70;89.10;;;;;;4967259;28;20131;-78
2022/10/15 12:20:14;;;;;;;19.25;10.35;;;14.80;89.00;;;;;;4951002;28;20358;-78
2022/10/15 12:22:54;;;;;;;20.98;11.40;;;14.80;88.90;;;;;;4970333;28;20098;-78
2022/10/15 12:25:46;;;;;;;20.13;10.75;;;14.80;88.90;;;;;;4968532;28;20058;-77
2022/10/15 12:28:20;;;;;;;23.02;11.63;;;14.80;89.00;;;;;;4983055;28;20063;-77
2022/10/15 12:31:05;;;;;;;19.33;10.80;;;14.80;88.90;;;;;;4968005;28;20171;-78
2022/10/15 12:33:35;;;;;;;21.08;11.32;;;14.80;88.90;;;;;;4968567;28;20282;-77
2022/10/15 12:36:08;;;;;;;20.25;10.60;;;14.90;89.00;;;;;;4968476;28;20071;-76
2022/10/15 12:38:37;;;;;;;22.55;11.02;;;14.90;89.00;;;;;;4964171;28;20055;-79
2022/10/15 12:41:08;;;;;;;23.15;11.43;;;14.90;89.00;;;;;;4951843;28;20062;-79
2022/10/15 12:43:41;;;;;;;20.87;11.77;;;14.90;89.20;;;;;;4956605;28;20059;-79
2022/10/15 12:46:12;;;;;;;19.88;10.60;;;14.90;89.10;;;;;;4968407;28;20734;-77
2022/10/15 12:48:41;;;;;;;21.25;10.98;;;14.90;89.20;;;;;;4965682;28;20122;-77
2022/10/15 12:51:35;;;;;;;20.75;11.23;;;14.90;89.10;;;;;;4967689;28;20062;-77
2022/10/15 12:54:02;;;;;;;21.05;10.60;;;15.00;89.20;;;;;;4934225;28;20061;-77